sensor_id;sensor_type;location;lat;lon;timestamp;temperature;humidity
1155;DHT22;566;48.414;9.118;2022-09-03T00:01:53;16.80;85.90
1155;DHT22;566;48.414;9.118;2022-09-03T00:07:34;16.90;86.00
1155;DHT22;566;48.414;9.118;2022-09-03T00:10:04;16.90;86.10
1155;DHT22;566;48.414;9.118;2022-09-03T00:12:36;16.90;86.20
1155;DHT22;566;48.414;9.118;2022-09-03T00:15:11;17.00;86.10
1155;DHT22;566;48.414;9.118;2022-09-03T00:17:41;16.90;85.90
1155;DHT22;566;48.414;9.118;2022-09-03T00:22:50;16.90;86.20
1155;DHT22;566;48.414;9.118;2022-09-03T00:25:42;16.80;86.10
1155;DHT22;566;48.414;9.118;2022-09-03T00:28:22;16.80;86.30
1155;DHT22;566;48.414;9.118;2022-09-03T00:30:55;16.80;87.00
1155;DHT22;566;48.414;9.118;2022-09-03T00:33:26;16.80;86.70
1155;DHT22;566;48.414;9.118;2022-09-03T00:36:07;16.70;87.20
1155;DHT22;566;48.414;9.118;2022-09-03T00:38:36;16.80;87.00
1155;DHT22;566;48.414;9.118;2022-09-03T00:44:04;16.70;87.60
1155;DHT22;566;48.414;9.118;2022-09-03T00:49:40;16.70;88.00
1155;DHT22;566;48.414;9.118;2022-09-03T00:52:27;16.70;88.20
1155;DHT22;566;48.414;9.118;2022-09-03T01:00:28;16.60;89.10
1155;DHT22;566;48.414;9.118;2022-09-03T01:03:08;16.50;89.30
1155;DHT22;566;48.414;9.118;2022-09-03T01:19:26;16.30;90.30
1155;DHT22;566;48.414;9.118;2022-09-03T01:30:30;16.10;91.60
1155;DHT22;566;48.414;9.118;2022-09-03T01:35:49;16.10;91.80
1155;DHT22;566;48.414;9.118;2022-09-03T01:38:33;16.10;91.60
1155;DHT22;566;48.414;9.118;2022-09-03T01:44:18;16.00;92.00
1155;DHT22;566;48.414;9.118;2022-09-03T01:46:49;16.00;92.10
1155;DHT22;566;48.414;9.118;2022-09-03T01:49:23;16.00;92.20
1155;DHT22;566;48.414;9.118;2022-09-03T01:54:54;16.20;91.90
1155;DHT22;566;48.414;9.118;2022-09-03T02:00:32;16.40;91.00
1155;DHT22;566;48.414;9.118;2022-09-03T02:03:04;16.40;91.20
1155;DHT22;566;48.414;9.118;2022-09-03T02:05:31;16.30;91.60
1155;DHT22;566;48.414;9.118;2022-09-03T02:07:59;16.30;91.40
1155;DHT22;566;48.414;9.118;2022-09-03T02:10:46;16.20;91.50
1155;DHT22;566;48.414;9.118;2022-09-03T02:13:31;16.20;91.70
1155;DHT22;566;48.414;9.118;2022-09-03T02:16:02;16.20;91.70
1155;DHT22;566;48.414;9.118;2022-09-03T02:18:32;16.10;92.20
1155;DHT22;566;48.414;9.118;2022-09-03T02:20:59;16.10;92.20
1155;DHT22;566;48.414;9.118;2022-09-03T02:23:25;16.10;92.70
1155;DHT22;566;48.414;9.118;2022-09-03T02:25:55;16.00;92.90
1155;DHT22;566;48.414;9.118;2022-09-03T02:28:21;15.90;93.20
1155;DHT22;566;48.414;9.118;2022-09-03T02:30:47;15.90;93.50
1155;DHT22;566;48.414;9.118;2022-09-03T02:33:14;15.90;93.40
1155;DHT22;566;48.414;9.118;2022-09-03T02:35:43;15.90;93.50
1155;DHT22;566;48.414;9.118;2022-09-03T02:38:17;16.00;93.50
1155;DHT22;566;48.414;9.118;2022-09-03T02:40:43;16.00;93.20
1155;DHT22;566;48.414;9.118;2022-09-03T02:46:04;16.10;93.00
1155;DHT22;566;48.414;9.118;2022-09-03T02:48:31;16.10;93.10
1155;DHT22;566;48.414;9.118;2022-09-03T02:50:57;16.20;93.00
1155;DHT22;566;48.414;9.118;2022-09-03T02:53:24;16.30;92.20
1155;DHT22;566;48.414;9.118;2022-09-03T02:55:56;16.40;92.20
1155;DHT22;566;48.414;9.118;2022-09-03T02:58:21;16.50;92.10
1155;DHT22;566;48.414;9.118;2022-09-03T03:00:47;16.50;91.60
1155;DHT22;566;48.414;9.118;2022-09-03T03:03:13;16.60;91.80
1155;DHT22;566;48.414;9.118;2022-09-03T03:05:50;16.50;92.00
1155;DHT22;566;48.414;9.118;2022-09-03T03:08:18;16.50;92.20
1155;DHT22;566;48.414;9.118;2022-09-03T03:10:48;16.50;91.90
1155;DHT22;566;48.414;9.118;2022-09-03T03:13:16;16.50;91.70
1155;DHT22;566;48.414;9.118;2022-09-03T03:15:43;16.60;91.80
1155;DHT22;566;48.414;9.118;2022-09-03T03:18:10;16.50;91.90
1155;DHT22;566;48.414;9.118;2022-09-03T03:20:39;16.50;92.10
1155;DHT22;566;48.414;9.118;2022-09-03T03:23:05;16.50;92.20
1155;DHT22;566;48.414;9.118;2022-09-03T03:25:34;16.50;92.10
1155;DHT22;566;48.414;9.118;2022-09-03T03:28:00;16.50;92.30
1155;DHT22;566;48.414;9.118;2022-09-03T03:30:26;16.50;92.30
1155;DHT22;566;48.414;9.118;2022-09-03T03:32:53;16.60;92.20
1155;DHT22;566;48.414;9.118;2022-09-03T03:35:19;16.60;92.10
1155;DHT22;566;48.414;9.118;2022-09-03T03:37:45;16.70;92.10
1155;DHT22;566;48.414;9.118;2022-09-03T03:40:11;16.80;91.90
1155;DHT22;566;48.414;9.118;2022-09-03T03:42:37;16.80;91.70
1155;DHT22;566;48.414;9.118;2022-09-03T03:45:04;16.80;91.80
1155;DHT22;566;48.414;9.118;2022-09-03T03:47:31;16.80;92.00
1155;DHT22;566;48.414;9.118;2022-09-03T03:49:57;16.80;92.10
1155;DHT22;566;48.414;9.118;2022-09-03T03:52:23;16.90;92.40
1155;DHT22;566;48.414;9.118;2022-09-03T03:54:50;16.90;92.50
1155;DHT22;566;48.414;9.118;2022-09-03T03:57:16;16.90;92.60
1155;DHT22;566;48.414;9.118;2022-09-03T03:59:44;16.90;92.80
1155;DHT22;566;48.414;9.118;2022-09-03T04:02:09;16.90;92.90
1155;DHT22;566;48.414;9.118;2022-09-03T04:04:38;17.00;92.80
1155;DHT22;566;48.414;9.118;2022-09-03T04:07:04;17.00;92.80
1155;DHT22;566;48.414;9.118;2022-09-03T04:09:30;17.00;92.90
1155;DHT22;566;48.414;9.118;2022-09-03T04:11:55;17.10;93.00
1155;DHT22;566;48.414;9.118;2022-09-03T04:14:23;17.10;93.10
1155;DHT22;566;48.414;9.118;2022-09-03T04:16:49;17.00;93.30
1155;DHT22;566;48.414;9.118;2022-09-03T04:19:16;17.00;93.20
1155;DHT22;566;48.414;9.118;2022-09-03T04:21:42;17.10;93.40
1155;DHT22;566;48.414;9.118;2022-09-03T04:24:08;17.00;93.60
1155;DHT22;566;48.414;9.118;2022-09-03T04:26:35;17.00;93.80
1155;DHT22;566;48.414;9.118;2022-09-03T04:29:06;16.90;94.10
1155;DHT22;566;48.414;9.118;2022-09-03T04:31:33;16.90;94.10
1155;DHT22;566;48.414;9.118;2022-09-03T04:33:59;16.90;94.20
1155;DHT22;566;48.414;9.118;2022-09-03T04:36:27;16.90;94.40
1155;DHT22;566;48.414;9.118;2022-09-03T04:38:54;16.90;94.10
1155;DHT22;566;48.414;9.118;2022-09-03T04:41:27;16.90;94.40
1155;DHT22;566;48.414;9.118;2022-09-03T04:43:54;16.90;94.40
1155;DHT22;566;48.414;9.118;2022-09-03T04:46:22;16.80;94.40
1155;DHT22;566;48.414;9.118;2022-09-03T04:48:51;16.80;94.80
1155;DHT22;566;48.414;9.118;2022-09-03T04:51:20;16.80;94.60
1155;DHT22;566;48.414;9.118;2022-09-03T04:53:47;16.80;94.90
1155;DHT22;566;48.414;9.118;2022-09-03T04:56:23;16.70;95.10
1155;DHT22;566;48.414;9.118;2022-09-03T04:58:57;16.70;95.40
1155;DHT22;566;48.414;9.118;2022-09-03T05:01:25;16.70;95.30
1155;DHT22;566;48.414;9.118;2022-09-03T05:03:51;16.60;95.30
1155;DHT22;566;48.414;9.118;2022-09-03T05:06:17;16.60;95.40
1155;DHT22;566;48.414;9.118;2022-09-03T05:08:47;16.60;95.50
1155;DHT22;566;48.414;9.118;2022-09-03T05:11:13;16.60;95.30
1155;DHT22;566;48.414;9.118;2022-09-03T05:13:39;16.60;95.30
1155;DHT22;566;48.414;9.118;2022-09-03T05:16:07;16.70;94.90
1155;DHT22;566;48.414;9.118;2022-09-03T05:18:33;16.80;94.60
1155;DHT22;566;48.414;9.118;2022-09-03T05:21:11;16.80;94.60
1155;DHT22;566;48.414;9.118;2022-09-03T05:23:42;16.80;94.40
1155;DHT22;566;48.414;9.118;2022-09-03T05:26:11;16.90;93.70
1155;DHT22;566;48.414;9.118;2022-09-03T05:28:38;17.00;93.50
1155;DHT22;566;48.414;9.118;2022-09-03T05:33:42;17.00;93.40
1155;DHT22;566;48.414;9.118;2022-09-03T05:36:20;17.10;92.60
1155;DHT22;566;48.414;9.118;2022-09-03T05:38:47;17.20;92.10
1155;DHT22;566;48.414;9.118;2022-09-03T05:41:15;17.20;91.50
1155;DHT22;566;48.414;9.118;2022-09-03T05:43:42;17.40;91.20
1155;DHT22;566;48.414;9.118;2022-09-03T05:46:13;17.40;91.30
1155;DHT22;566;48.414;9.118;2022-09-03T05:48:41;17.50;91.00
1155;DHT22;566;48.414;9.118;2022-09-03T05:51:15;17.50;91.00
1155;DHT22;566;48.414;9.118;2022-09-03T05:53:42;17.60;91.00
1155;DHT22;566;48.414;9.118;2022-09-03T05:56:11;17.60;90.60
1155;DHT22;566;48.414;9.118;2022-09-03T05:58:39;17.70;90.30
1155;DHT22;566;48.414;9.118;2022-09-03T06:03:47;17.90;89.80
1155;DHT22;566;48.414;9.118;2022-09-03T06:06:14;18.00;89.90
1155;DHT22;566;48.414;9.118;2022-09-03T06:08:40;18.00;89.80
1155;DHT22;566;48.414;9.118;2022-09-03T06:11:07;18.00;89.90
1155;DHT22;566;48.414;9.118;2022-09-03T06:13:33;18.10;89.90
1155;DHT22;566;48.414;9.118;2022-09-03T06:16:02;18.10;90.00
1155;DHT22;566;48.414;9.118;2022-09-03T06:18:29;18.20;90.40
1155;DHT22;566;48.414;9.118;2022-09-03T06:21:00;18.20;90.40
1155;DHT22;566;48.414;9.118;2022-09-03T06:23:27;18.30;89.80
1155;DHT22;566;48.414;9.118;2022-09-03T06:28:33;18.40;89.60
1155;DHT22;566;48.414;9.118;2022-09-03T06:31:01;18.60;89.70
1155;DHT22;566;48.414;9.118;2022-09-03T06:33:28;18.70;89.40
1155;DHT22;566;48.414;9.118;2022-09-03T06:35:56;18.70;88.80
1155;DHT22;566;48.414;9.118;2022-09-03T06:38:23;18.80;89.20
1155;DHT22;566;48.414;9.118;2022-09-03T06:40:59;18.90;88.70
1155;DHT22;566;48.414;9.118;2022-09-03T06:43:31;19.00;88.80
1155;DHT22;566;48.414;9.118;2022-09-03T06:46:02;18.90;88.80
1155;DHT22;566;48.414;9.118;2022-09-03T06:48:30;18.90;89.80
1155;DHT22;566;48.414;9.118;2022-09-03T06:53:31;18.70;90.50
1155;DHT22;566;48.414;9.118;2022-09-03T06:56:04;18.70;89.60
1155;DHT22;566;48.414;9.118;2022-09-03T06:58:32;18.70;89.90
1155;DHT22;566;48.414;9.118;2022-09-03T07:01:10;18.80;90.40
1155;DHT22;566;48.414;9.118;2022-09-03T07:03:38;18.90;89.00
1155;DHT22;566;48.414;9.118;2022-09-03T07:06:06;19.10;89.50
1155;DHT22;566;48.414;9.118;2022-09-03T07:08:33;19.10;89.70
1155;DHT22;566;48.414;9.118;2022-09-03T07:11:03;19.10;89.50
1155;DHT22;566;48.414;9.118;2022-09-03T07:13:42;19.10;89.70
1155;DHT22;566;48.414;9.118;2022-09-03T07:16:11;19.10;90.40
1155;DHT22;566;48.414;9.118;2022-09-03T07:18:39;19.20;90.10
1155;DHT22;566;48.414;9.118;2022-09-03T07:21:09;19.30;89.40
1155;DHT22;566;48.414;9.118;2022-09-03T07:23:36;19.30;89.20
1155;DHT22;566;48.414;9.118;2022-09-03T07:26:08;19.30;90.10
1155;DHT22;566;48.414;9.118;2022-09-03T07:28:35;19.20;90.10
1155;DHT22;566;48.414;9.118;2022-09-03T07:31:09;19.20;90.10
1155;DHT22;566;48.414;9.118;2022-09-03T07:33:37;19.30;90.70
1155;DHT22;566;48.414;9.118;2022-09-03T07:36:04;19.20;90.40
1155;DHT22;566;48.414;9.118;2022-09-03T07:38:35;19.20;89.90
1155;DHT22;566;48.414;9.118;2022-09-03T07:41:03;19.20;89.60
1155;DHT22;566;48.414;9.118;2022-09-03T07:43:39;19.20;89.40
1155;DHT22;566;48.414;9.118;2022-09-03T07:46:06;19.20;89.90
1155;DHT22;566;48.414;9.118;2022-09-03T07:48:34;19.10;89.80
1155;DHT22;566;48.414;9.118;2022-09-03T07:51:07;19.10;90.50
1155;DHT22;566;48.414;9.118;2022-09-03T07:53:33;19.10;90.20
1155;DHT22;566;48.414;9.118;2022-09-03T07:56:07;19.30;89.50
1155;DHT22;566;48.414;9.118;2022-09-03T07:58:34;19.40;89.80
1155;DHT22;566;48.414;9.118;2022-09-03T08:01:06;19.90;87.30
1155;DHT22;566;48.414;9.118;2022-09-03T08:03:33;20.30;87.30
1155;DHT22;566;48.414;9.118;2022-09-03T08:06:03;20.90;84.00
1155;DHT22;566;48.414;9.118;2022-09-03T08:08:30;20.90;81.60
1155;DHT22;566;48.414;9.118;2022-09-03T08:11:03;20.90;80.90
1155;DHT22;566;48.414;9.118;2022-09-03T08:13:32;20.60;81.70
1155;DHT22;566;48.414;9.118;2022-09-03T08:15:58;20.30;83.40
1155;DHT22;566;48.414;9.118;2022-09-03T08:18:25;20.00;82.50
1155;DHT22;566;48.414;9.118;2022-09-03T08:20:51;19.90;83.20
1155;DHT22;566;48.414;9.118;2022-09-03T08:23:17;19.70;83.00
1155;DHT22;566;48.414;9.118;2022-09-03T08:25:42;19.60;83.60
1155;DHT22;566;48.414;9.118;2022-09-03T08:28:09;19.70;84.70
1155;DHT22;566;48.414;9.118;2022-09-03T08:30:35;20.20;84.20
1155;DHT22;566;48.414;9.118;2022-09-03T08:33:01;21.60;81.00
1155;DHT22;566;48.414;9.118;2022-09-03T08:35:29;23.30;75.80
1155;DHT22;566;48.414;9.118;2022-09-03T08:37:56;25.30;70.70
1155;DHT22;566;48.414;9.118;2022-09-03T08:40:22;26.80;68.10
1155;DHT22;566;48.414;9.118;2022-09-03T08:45:35;25.60;67.50
1155;DHT22;566;48.414;9.118;2022-09-03T08:48:05;25.90;67.60
1155;DHT22;566;48.414;9.118;2022-09-03T08:50:43;27.30;66.10
1155;DHT22;566;48.414;9.118;2022-09-03T08:53:23;28.00;63.70
1155;DHT22;566;48.414;9.118;2022-09-03T08:56:19;27.00;65.10
1155;DHT22;566;48.414;9.118;2022-09-03T08:58:48;25.90;67.80
1155;DHT22;566;48.414;9.118;2022-09-03T09:22:51;23.60;73.30
1155;DHT22;566;48.414;9.118;2022-09-03T09:25:22;23.70;73.00
1155;DHT22;566;48.414;9.118;2022-09-03T09:27:58;23.50;73.70
1155;DHT22;566;48.414;9.118;2022-09-03T09:30:25;23.20;74.70
1155;DHT22;566;48.414;9.118;2022-09-03T09:32:55;22.70;75.40
1155;DHT22;566;48.414;9.118;2022-09-03T09:35:21;22.80;76.60
1155;DHT22;566;48.414;9.118;2022-09-03T09:37:49;23.10;75.30
1155;DHT22;566;48.414;9.118;2022-09-03T09:40:27;23.60;74.50
1155;DHT22;566;48.414;9.118;2022-09-03T09:43:04;23.90;73.90
1155;DHT22;566;48.414;9.118;2022-09-03T09:45:33;23.80;73.30
1155;DHT22;566;48.414;9.118;2022-09-03T09:48:00;24.40;73.00
1155;DHT22;566;48.414;9.118;2022-09-03T09:50:27;25.10;71.70
1155;DHT22;566;48.414;9.118;2022-09-03T09:53:04;25.60;70.20
1155;DHT22;566;48.414;9.118;2022-09-03T09:55:51;25.10;71.30
1155;DHT22;566;48.414;9.118;2022-09-03T09:58:26;24.40;73.30
1155;DHT22;566;48.414;9.118;2022-09-03T10:01:11;23.60;75.60
1155;DHT22;566;48.414;9.118;2022-09-03T10:03:47;23.00;76.90
1155;DHT22;566;48.414;9.118;2022-09-03T10:06:15;22.90;78.10
1155;DHT22;566;48.414;9.118;2022-09-03T10:09:15;23.00;77.50
1155;DHT22;566;48.414;9.118;2022-09-03T10:11:57;23.40;75.80
1155;DHT22;566;48.414;9.118;2022-09-03T10:14:46;24.30;74.80
1155;DHT22;566;48.414;9.118;2022-09-03T10:17:26;25.80;70.50
1155;DHT22;566;48.414;9.118;2022-09-03T10:20:15;26.70;69.70
1155;DHT22;566;48.414;9.118;2022-09-03T10:22:55;26.70;68.60
1155;DHT22;566;48.414;9.118;2022-09-03T10:25:26;25.90;69.60
1155;DHT22;566;48.414;9.118;2022-09-03T10:27:54;25.10;71.90
1155;DHT22;566;48.414;9.118;2022-09-03T10:30:21;25.00;72.80
1155;DHT22;566;48.414;9.118;2022-09-03T10:33:36;25.10;72.40
1155;DHT22;566;48.414;9.118;2022-09-03T10:38:44;24.90;72.00
1155;DHT22;566;48.414;9.118;2022-09-03T10:41:34;24.60;72.90
1155;DHT22;566;48.414;9.118;2022-09-03T10:47:23;25.20;72.20
1155;DHT22;566;48.414;9.118;2022-09-03T10:50:41;25.10;72.80
1155;DHT22;566;48.414;9.118;2022-09-03T11:00:53;23.00;77.80
1155;DHT22;566;48.414;9.118;2022-09-03T11:08:54;20.70;89.80
1155;DHT22;566;48.414;9.118;2022-09-03T11:11:41;19.60;94.00
1155;DHT22;566;48.414;9.118;2022-09-03T11:14:41;18.90;95.40
1155;DHT22;566;48.414;9.118;2022-09-03T11:17:14;18.70;94.60
1155;DHT22;566;48.414;9.118;2022-09-03T11:20:37;18.40;94.90
1155;DHT22;566;48.414;9.118;2022-09-03T11:22:39;18.20;96.30
1155;DHT22;566;48.414;9.118;2022-09-03T11:25:07;17.90;93.90
1155;DHT22;566;48.414;9.118;2022-09-03T11:30:09;17.60;90.30
1155;DHT22;566;48.414;9.118;2022-09-03T11:37:59;15.40;95.10
1155;DHT22;566;48.414;9.118;2022-09-03T11:46:13;14.40;92.40
1155;DHT22;566;48.414;9.118;2022-09-03T11:56:38;13.80;90.10
1155;DHT22;566;48.414;9.118;2022-09-03T11:59:31;13.80;89.80
1155;DHT22;566;48.414;9.118;2022-09-03T12:02:00;13.90;88.70
1155;DHT22;566;48.414;9.118;2022-09-03T12:04:39;13.90;88.50
1155;DHT22;566;48.414;9.118;2022-09-03T12:10:02;13.90;88.80
1155;DHT22;566;48.414;9.118;2022-09-03T12:15:53;14.20;86.80
1155;DHT22;566;48.414;9.118;2022-09-03T12:18:25;14.30;88.30
1155;DHT22;566;48.414;9.118;2022-09-03T12:23:31;14.60;91.50
1155;DHT22;566;48.414;9.118;2022-09-03T12:26:02;14.90;87.40
1155;DHT22;566;48.414;9.118;2022-09-03T12:28:33;15.30;88.60
1155;DHT22;566;48.414;9.118;2022-09-03T12:34:02;16.70;85.30
1155;DHT22;566;48.414;9.118;2022-09-03T12:36:47;17.20;96.00
1155;DHT22;566;48.414;9.118;2022-09-03T12:39:20;17.60;94.80
1155;DHT22;566;48.414;9.118;2022-09-03T12:42:11;17.60;94.80
1155;DHT22;566;48.414;9.118;2022-09-03T12:44:40;17.50;94.90
1155;DHT22;566;48.414;9.118;2022-09-03T12:47:14;17.60;96.90
1155;DHT22;566;48.414;9.118;2022-09-03T12:49:44;17.60;96.30
1155;DHT22;566;48.414;9.118;2022-09-03T12:52:30;17.60;98.00
1155;DHT22;566;48.414;9.118;2022-09-03T12:55:07;17.40;97.70
1155;DHT22;566;48.414;9.118;2022-09-03T13:00:32;17.50;97.10
1155;DHT22;566;48.414;9.118;2022-09-03T13:03:06;17.40;97.20
1155;DHT22;566;48.414;9.118;2022-09-03T13:05:40;17.50;97.50
1155;DHT22;566;48.414;9.118;2022-09-03T13:08:08;17.70;97.40
1155;DHT22;566;48.414;9.118;2022-09-03T13:10:40;17.90;97.20
1155;DHT22;566;48.414;9.118;2022-09-03T13:27:06;19.10;97.40
1155;DHT22;566;48.414;9.118;2022-09-03T13:32:41;19.70;96.70
1155;DHT22;566;48.414;9.118;2022-09-03T13:38:13;20.50;94.80
1155;DHT22;566;48.414;9.118;2022-09-03T13:43:38;21.00;92.50
1155;DHT22;566;48.414;9.118;2022-09-03T13:46:17;21.20;92.10
1155;DHT22;566;48.414;9.118;2022-09-03T13:48:47;21.80;88.90
1155;DHT22;566;48.414;9.118;2022-09-03T13:51:45;22.90;88.40
1155;DHT22;566;48.414;9.118;2022-09-03T13:57:04;24.40;82.30
1155;DHT22;566;48.414;9.118;2022-09-03T14:02:49;22.40;84.40
1155;DHT22;566;48.414;9.118;2022-09-03T14:08:06;21.60;87.50
1155;DHT22;566;48.414;9.118;2022-09-03T14:13:20;24.30;78.80
1155;DHT22;566;48.414;9.118;2022-09-03T14:18:58;26.20;74.30
1155;DHT22;566;48.414;9.118;2022-09-03T14:21:37;26.10;74.30
1155;DHT22;566;48.414;9.118;2022-09-03T14:24:43;26.70;71.70
1155;DHT22;566;48.414;9.118;2022-09-03T14:27:23;26.60;72.00
1155;DHT22;566;48.414;9.118;2022-09-03T14:29:56;26.50;70.80
1155;DHT22;566;48.414;9.118;2022-09-03T14:35:32;26.40;72.30
1155;DHT22;566;48.414;9.118;2022-09-03T14:38:27;26.70;69.90
1155;DHT22;566;48.414;9.118;2022-09-03T14:41:06;25.80;70.00
1155;DHT22;566;48.414;9.118;2022-09-03T15:05:09;27.60;68.00
1155;DHT22;566;48.414;9.118;2022-09-03T15:07:52;26.00;71.70
1155;DHT22;566;48.414;9.118;2022-09-03T15:10:44;24.70;75.90
1155;DHT22;566;48.414;9.118;2022-09-03T15:24:50;25.80;75.00
1155;DHT22;566;48.414;9.118;2022-09-03T15:30:32;25.30;74.90
1155;DHT22;566;48.414;9.118;2022-09-03T15:41:33;26.30;72.80
1155;DHT22;566;48.414;9.118;2022-09-03T15:44:01;25.80;72.80
1155;DHT22;566;48.414;9.118;2022-09-03T15:46:58;25.20;74.90
1155;DHT22;566;48.414;9.118;2022-09-03T15:49:57;24.90;75.90
1155;DHT22;566;48.414;9.118;2022-09-03T16:03:11;25.90;74.50
1155;DHT22;566;48.414;9.118;2022-09-03T16:05:56;24.80;75.10
1155;DHT22;566;48.414;9.118;2022-09-03T16:08:45;24.10;78.00
1155;DHT22;566;48.414;9.118;2022-09-03T16:11:23;24.70;76.70
1155;DHT22;566;48.414;9.118;2022-09-03T16:14:19;25.50;74.10
1155;DHT22;566;48.414;9.118;2022-09-03T16:17:08;25.40;72.90
1155;DHT22;566;48.414;9.118;2022-09-03T16:19:53;23.90;75.90
1155;DHT22;566;48.414;9.118;2022-09-03T16:22:31;22.70;79.20
1155;DHT22;566;48.414;9.118;2022-09-03T16:25:07;22.00;82.00
1155;DHT22;566;48.414;9.118;2022-09-03T16:30:20;22.20;82.40
1155;DHT22;566;48.414;9.118;2022-09-03T16:32:56;22.60;82.40
1155;DHT22;566;48.414;9.118;2022-09-03T16:35:29;24.00;79.50
1155;DHT22;566;48.414;9.118;2022-09-03T16:46:22;27.50;69.90
1155;DHT22;566;48.414;9.118;2022-09-03T16:48:59;26.70;74.80
1155;DHT22;566;48.414;9.118;2022-09-03T16:51:48;26.40;76.30
1155;DHT22;566;48.414;9.118;2022-09-03T17:02:29;28.30;73.70
1155;DHT22;566;48.414;9.118;2022-09-03T17:05:14;28.70;71.50
1155;DHT22;566;48.414;9.118;2022-09-03T17:15:56;27.60;73.80
1155;DHT22;566;48.414;9.118;2022-09-03T17:18:50;26.60;76.00
1155;DHT22;566;48.414;9.118;2022-09-03T17:21:42;25.90;78.00
1155;DHT22;566;48.414;9.118;2022-09-03T17:24:47;25.60;79.60
1155;DHT22;566;48.414;9.118;2022-09-03T17:27:43;25.30;79.90
1155;DHT22;566;48.414;9.118;2022-09-03T17:33:06;24.60;81.60
1155;DHT22;566;48.414;9.118;2022-09-03T17:38:53;22.10;88.80
1155;DHT22;566;48.414;9.118;2022-09-03T17:47:26;20.50;93.20
1155;DHT22;566;48.414;9.118;2022-09-03T17:50:19;19.80;94.80
1155;DHT22;566;48.414;9.118;2022-09-03T17:52:57;19.10;95.80
1155;DHT22;566;48.414;9.118;2022-09-03T17:55:40;18.40;96.00
1155;DHT22;566;48.414;9.118;2022-09-03T17:58:27;17.90;95.80
1155;DHT22;566;48.414;9.118;2022-09-03T18:03:44;17.20;94.50
1155;DHT22;566;48.414;9.118;2022-09-03T18:12:28;16.70;92.30
1155;DHT22;566;48.414;9.118;2022-09-03T18:15:08;16.50;91.90
1155;DHT22;566;48.414;9.118;2022-09-03T18:17:45;16.40;91.40
1155;DHT22;566;48.414;9.118;2022-09-03T18:20:15;16.20;91.00
1155;DHT22;566;48.414;9.118;2022-09-03T18:23:06;16.10;90.50
1155;DHT22;566;48.414;9.118;2022-09-03T18:26:01;16.00;90.20
1155;DHT22;566;48.414;9.118;2022-09-03T18:28:54;15.90;89.70
1155;DHT22;566;48.414;9.118;2022-09-03T18:31:42;15.80;88.90
1155;DHT22;566;48.414;9.118;2022-09-03T18:34:32;15.70;88.80
1155;DHT22;566;48.414;9.118;2022-09-03T18:37:23;15.70;88.50
1155;DHT22;566;48.414;9.118;2022-09-03T18:40:18;15.60;88.10
1155;DHT22;566;48.414;9.118;2022-09-03T18:46:02;15.50;88.20
1155;DHT22;566;48.414;9.118;2022-09-03T18:52:05;15.40;88.00
1155;DHT22;566;48.414;9.118;2022-09-03T18:55:16;15.30;88.20
1155;DHT22;566;48.414;9.118;2022-09-03T18:58:18;15.20;88.00
1155;DHT22;566;48.414;9.118;2022-09-03T19:01:10;15.20;87.40
1155;DHT22;566;48.414;9.118;2022-09-03T19:04:06;15.10;87.20
1155;DHT22;566;48.414;9.118;2022-09-03T19:07:08;15.10;87.30
1155;DHT22;566;48.414;9.118;2022-09-03T19:10:05;15.00;87.00
1155;DHT22;566;48.414;9.118;2022-09-03T19:16:06;14.90;86.10
1155;DHT22;566;48.414;9.118;2022-09-03T19:19:29;14.90;85.80
1155;DHT22;566;48.414;9.118;2022-09-03T19:25:12;14.80;85.90
1155;DHT22;566;48.414;9.118;2022-09-03T19:28:12;14.80;85.80
1155;DHT22;566;48.414;9.118;2022-09-03T19:31:22;14.80;85.80
1155;DHT22;566;48.414;9.118;2022-09-03T19:37:52;14.80;86.40
1155;DHT22;566;48.414;9.118;2022-09-03T19:46:51;14.80;87.30
1155;DHT22;566;48.414;9.118;2022-09-03T19:50:21;14.80;87.40
1155;DHT22;566;48.414;9.118;2022-09-03T19:53:13;14.80;87.40
1155;DHT22;566;48.414;9.118;2022-09-03T19:56:05;14.80;87.40
1155;DHT22;566;48.414;9.118;2022-09-03T19:59:03;14.80;87.80
1155;DHT22;566;48.414;9.118;2022-09-03T20:01:50;14.80;87.80
1155;DHT22;566;48.414;9.118;2022-09-03T20:04:45;14.80;87.40
1155;DHT22;566;48.414;9.118;2022-09-03T20:07:31;14.80;87.70
1155;DHT22;566;48.414;9.118;2022-09-03T20:10:17;14.90;88.40
1155;DHT22;566;48.414;9.118;2022-09-03T20:13:05;15.00;89.30
1155;DHT22;566;48.414;9.118;2022-09-03T20:16:01;15.00;90.00
1155;DHT22;566;48.414;9.118;2022-09-03T20:18:36;15.10;90.40
1155;DHT22;566;48.414;9.118;2022-09-03T20:27:15;15.10;89.90
1155;DHT22;566;48.414;9.118;2022-09-03T20:32:19;15.00;89.00
1155;DHT22;566;48.414;9.118;2022-09-03T20:35:09;15.00;88.60
1155;DHT22;566;48.414;9.118;2022-09-03T20:38:09;15.00;89.10
1155;DHT22;566;48.414;9.118;2022-09-03T20:43:32;14.80;89.30
1155;DHT22;566;48.414;9.118;2022-09-03T20:52:02;14.80;87.70
1155;DHT22;566;48.414;9.118;2022-09-03T20:57:32;15.10;89.70
1155;DHT22;566;48.414;9.118;2022-09-03T21:00:11;15.30;91.80
1155;DHT22;566;48.414;9.118;2022-09-03T21:08:11;15.30;92.00
1155;DHT22;566;48.414;9.118;2022-09-03T21:11:00;15.40;92.70
1155;DHT22;566;48.414;9.118;2022-09-03T21:22:13;15.70;94.70
1155;DHT22;566;48.414;9.118;2022-09-03T21:27:19;15.60;94.40
1155;DHT22;566;48.414;9.118;2022-09-03T21:30:01;15.60;94.70
1155;DHT22;566;48.414;9.118;2022-09-03T21:32:37;15.50;94.20
1155;DHT22;566;48.414;9.118;2022-09-03T21:35:25;15.60;94.30
1155;DHT22;566;48.414;9.118;2022-09-03T21:37:58;15.50;93.60
1155;DHT22;566;48.414;9.118;2022-09-03T21:40:29;15.50;93.70
1155;DHT22;566;48.414;9.118;2022-09-03T21:48:24;15.10;92.10
1155;DHT22;566;48.414;9.118;2022-09-03T21:50:55;15.00;91.10
1155;DHT22;566;48.414;9.118;2022-09-03T21:53:31;15.00;90.50
1155;DHT22;566;48.414;9.118;2022-09-03T22:04:17;14.80;88.90
1155;DHT22;566;48.414;9.118;2022-09-03T22:09:30;14.60;87.70
1155;DHT22;566;48.414;9.118;2022-09-03T22:12:04;14.60;87.50
1155;DHT22;566;48.414;9.118;2022-09-03T22:14:43;14.60;86.90
1155;DHT22;566;48.414;9.118;2022-09-03T22:19:50;14.70;85.90
1155;DHT22;566;48.414;9.118;2022-09-03T22:22:45;14.70;86.20
1155;DHT22;566;48.414;9.118;2022-09-03T22:27:55;14.60;85.30
1155;DHT22;566;48.414;9.118;2022-09-03T22:30:35;14.60;85.30
1155;DHT22;566;48.414;9.118;2022-09-03T22:33:48;14.60;85.10
1155;DHT22;566;48.414;9.118;2022-09-03T22:36:32;14.60;84.70
1155;DHT22;566;48.414;9.118;2022-09-03T22:52:58;14.50;85.00
1155;DHT22;566;48.414;9.118;2022-09-03T22:55:27;14.50;84.50
1155;DHT22;566;48.414;9.118;2022-09-03T22:58:08;14.60;83.50
1155;DHT22;566;48.414;9.118;2022-09-03T23:00:41;14.70;84.40
1155;DHT22;566;48.414;9.118;2022-09-03T23:03:29;14.60;84.50
1155;DHT22;566;48.414;9.118;2022-09-03T23:06:06;14.70;84.90
1155;DHT22;566;48.414;9.118;2022-09-03T23:08:37;14.60;85.10
1155;DHT22;566;48.414;9.118;2022-09-03T23:11:18;14.50;85.20
1155;DHT22;566;48.414;9.118;2022-09-03T23:13:55;14.50;84.90
1155;DHT22;566;48.414;9.118;2022-09-03T23:19:36;14.40;84.30
1155;DHT22;566;48.414;9.118;2022-09-03T23:24:48;14.40;84.60
1155;DHT22;566;48.414;9.118;2022-09-03T23:27:23;14.30;84.60
1155;DHT22;566;48.414;9.118;2022-09-03T23:29:53;14.20;85.20
1155;DHT22;566;48.414;9.118;2022-09-03T23:32:26;14.10;84.00
1155;DHT22;566;48.414;9.118;2022-09-03T23:34:52;14.10;83.50
1155;DHT22;566;48.414;9.118;2022-09-03T23:37:51;14.20;83.00
